EW9290 Weather Reports


Display with metric or nautical units.
time (UTC)temp
F
wind
direction
speed
MPH
gust
MPH
rain 1hr
in
rain 24hr
in
rain mn
in
humidity
%
barometer
mb
20230206002906 43 252 4.0 6.0 0.00 0.01 0.01 69 1012.0
20230206002406 43 267 7.0 8.0 0.00 0.01 0.01 69 1011.9
20230206001905 43 251 7.0 8.0 0.00 0.01 0.01 69 1011.9
20230206001404 43 259 7.0 9.0 0.00 0.01 0.01 69 1012.0
20230206000902 44 240 4.0 5.0 0.00 0.01 0.01 68 1012.0
20230206000401 44 263 7.0 9.0 0.00 0.01 0.01 68 1011.8
20230205235900 44 273 6.0 7.0 0.00 0.01 0.01 68 1011.7
20230205235359 44 280 4.0 5.0 0.00 0.01 0.01 68 1011.8
20230205234857 44 237 3.0 3.0 0.00 0.01 0.01 68 1011.8
20230205234357 44 263 6.0 7.0 0.00 0.01 0.01 67 1011.7
20230205233856 44 270 6.0 8.0 0.00 0.01 0.01 67 1011.7
20230205233355 44 238 3.0 3.0 0.00 0.01 0.01 67 1011.8
20230205232855 44 254 9.0 11.0 0.00 0.01 0.01 67 1011.6
20230205232353 44 231 3.0 3.0 0.00 0.01 0.01 68 1011.5
20230205231851 44 201 7.0 9.0 0.00 0.01 0.01 68 1011.5
20230205231351 44 241 5.0 6.0 0.00 0.01 0.01 68 1011.3
20230205230850 44 248 5.0 5.0 0.00 0.01 0.01 68 1011.1
20230205230348 44 224 9.0 10.0 0.00 0.01 0.01 68 1011.3
20230205225848 44 224 5.0 6.0 0.00 0.01 0.01 67 1011.1
20230205225347 44 228 3.0 3.0 0.00 0.01 0.01 67 1011.0
20230205224846 44 233 7.0 8.0 0.00 0.01 0.01 67 1011.0
20230205224344 44 239 5.0 8.0 0.00 0.01 0.01 67 1010.3
20230205223843 44 213 5.0 7.0 0.00 0.01 0.01 66 1010.8
20230205223343 44 225 10.0 10.0 0.00 0.01 0.01 66 1010.9
20230205222843 44 205 5.0 6.0 0.00 0.01 0.01 66 1010.8
20230205222342 44 239 6.0 7.0 0.00 0.01 0.01 66 1010.8
20230205221840 44 255 7.0 9.0 0.00 0.01 0.01 65 1010.8
20230205221339 44 221 6.0 8.0 0.00 0.01 0.01 65 1010.8
20230205220839 44 229 6.0 7.0 0.00 0.01 0.01 65 1010.8
20230205220338 44 233 4.0 5.0 0.00 0.01 0.01 65 1010.7
20230205215837 44 221 6.0 7.0 0.00 0.01 0.01 65 1010.8
20230205215337 44 226 5.0 6.0 0.00 0.01 0.01 65 1010.8
20230205214836 44 216 4.0 6.0 0.00 0.01 0.01 65 1010.5
20230205214335 44 224 4.0 6.0 0.00 0.01 0.01 65 1010.7
20230205213833 44 276 3.0 3.0 0.00 0.01 0.01 64 1011.0
20230205213332 44 200 3.0 3.0 0.00 0.01 0.01 64 1010.7
20230205212831 44 239 6.0 6.0 0.00 0.01 0.01 64 1010.7
20230205212329 44 217 7.0 9.0 0.00 0.01 0.01 64 1010.4
20230205211829 44 220 9.0 9.0 0.00 0.01 0.01 63 1010.5
20230205211328 44 195 4.0 5.0 0.00 0.01 0.01 63 1010.7
20230205210827 44 226 5.0 6.0 0.00 0.01 0.01 63 1010.5
20230205210328 44 226 7.0 9.0 0.00 0.01 0.01 62 1010.5
20230205205827 44 237 8.0 13.0 0.00 0.01 0.01 62 1010.7
20230205205323 44 238 9.0 11.0 0.00 0.01 0.01 62 1010.8
20230205204821 44 205 7.0 10.0 0.00 0.01 0.01 62 1010.4
20230205204319 44 197 5.0 6.0 0.00 0.01 0.01 62 1010.5
20230205203818 44 221 6.0 7.0 0.00 0.01 0.01 62 1010.4
20230205203317 44 222 4.0 5.0 0.00 0.01 0.01 62 1010.4
20230205202817 44 208 7.0 7.0 0.00 0.01 0.01 62 1010.5
20230205202315 44 203 7.0 11.0 0.00 0.01 0.01 62 1010.4
20230205201814 44 229 3.0 3.0 0.00 0.01 0.01 62 1010.5
20230205201314 44 234 7.0 8.0 0.00 0.01 0.01 62 1010.4
20230205200813 44 250 6.0 8.0 0.00 0.01 0.01 62 1010.8
20230205200313 44 235 8.0 9.0 0.00 0.01 0.01 61 1010.5
20230205195812 44 219 5.0 6.0 0.00 0.01 0.01 61 1010.3
20230205195311 44 221 4.0 5.0 0.00 0.01 0.01 61 1010.5
20230205194810 44 234 6.0 7.0 0.00 0.01 0.01 61 1010.3
20230205194309 44 231 6.0 7.0 0.00 0.01 0.01 61 1010.7
20230205193808 44 228 10.0 10.0 0.00 0.01 0.01 61 1010.4
20230205193308 44 228 6.0 7.0 0.00 0.01 0.01 60 1010.4
20230205192807 44 183 13.0 16.0 0.00 0.01 0.01 60 1010.3
20230205192306 44 233 7.0 9.0 0.00 0.01 0.01 60 1010.2
20230205191805 44 244 8.0 9.0 0.00 0.01 0.01 60 1010.2
20230205191303 44 232 5.0 7.0 0.00 0.01 0.01 60 1010.3
20230205190802 44 229 5.0 7.0 0.00 0.01 0.01 60 1010.2
20230205190302 44 233 5.0 6.0 0.00 0.01 0.01 60 1010.3
20230205185800 44 239 9.0 10.0 0.00 0.01 0.01 59 1010.3
20230205185513 44 205 7.0 15.0 0.00 0.01 0.01 59 1010.7
20230205185013 44 209 8.0 10.0 0.00 0.01 0.01 59 1010.5
20230205184513 44 213 4.0 5.0 0.00 0.01 0.01 59 1010.4
20230205184011 44 219 7.0 8.0 0.00 0.01 0.01 59 1010.5
20230205183511 44 272 7.0 8.0 0.00 0.01 0.01 59 1010.7
20230205183010 44 202 6.0 7.0 0.00 0.01 0.01 59 1010.4
20230205182509 44 216 9.0 10.0 0.00 0.01 0.01 59 1010.8
20230205182008 44 226 11.0 15.0 0.00 0.01 0.01 59 1010.8
20230205181507 44 190 10.0 10.0 0.00 0.01 0.01 59 1011.0
20230205181006 44 215 12.0 13.0 0.00 0.01 0.01 59 1011.1
20230205180505 44 237 6.0 8.0 0.00 0.01 0.01 59 1011.3
20230205180004 44 215 9.0 13.0 0.00 0.01 0.01 58 1011.3
20230205175503 44 222 10.0 13.0 0.00 0.01 0.01 58 1011.3
20230205175003 44 235 4.0 5.0 0.00 0.01 0.01 59 1011.4
20230205174502 44 229 6.0 7.0 0.00 0.01 0.01 58 1011.5
20230205174001 44 217 9.0 11.0 0.00 0.01 0.01 58 1011.4
20230205173500 44 228 13.0 16.0 0.00 0.01 0.01 58 1011.4
20230205172959 44 272 10.0 13.0 0.00 0.01 0.01 58 1011.6
20230205172459 44 188 7.0 8.0 0.00 0.01 0.01 58 1011.6
20230205171957 44 243 10.0 11.0 0.00 0.01 0.01 58 1011.6
20230205171456 44 165 4.0 7.0 0.00 0.01 0.01 58 1011.8
20230205170955 44 245 8.0 11.0 0.00 0.01 0.01 58 1012.1
20230205170454 44 232 8.0 9.0 0.00 0.01 0.01 57 1012.2
20230205165953 44 243 9.0 10.0 0.00 0.01 0.01 57 1012.2
20230205165452 44 238 11.0 13.0 0.00 0.01 0.01 57 1012.4
20230205164950 44 243 4.0 6.0 0.00 0.01 0.01 57 1012.3
20230205164450 44 253 8.0 10.0 0.00 0.01 0.01 57 1012.7
20230205163950 44 256 8.0 9.0 0.00 0.01 0.01 56 1012.8
20230205163449 44 234 14.0 17.0 0.00 0.01 0.01 56 1012.9
20230205162948 44 211 9.0 11.0 0.00 0.01 0.01 56 1013.0
20230205162448 44 206 11.0 13.0 0.00 0.01 0.01 55 1013.0
20230205161947 45 243 7.0 9.0 0.00 0.01 0.01 55 1013.2
20230205161446 44 246 8.0 9.0 0.00 0.01 0.01 54 1013.1
20230205160945 44 228 7.0 9.0 0.00 0.01 0.01 54 1013.2
20230205160445 45 261 10.0 14.0 0.00 0.01 0.01 54 1013.2
20230205155944 44 243 5.0 8.0 0.00 0.01 0.01 54 1013.3
20230205155443 44 206 10.0 13.0 0.00 0.01 0.01 54 1013.3
20230205154943 44 220 10.0 11.0 0.00 0.01 0.01 54 1013.2
20230205154441 44 236 13.0 14.0 0.00 0.01 0.01 54 1013.1
20230205153940 44 225 10.0 13.0 0.00 0.01 0.01 54 1013.2
20230205153440 44 222 11.0 14.0 0.00 0.01 0.01 54 1013.1
20230205152939 44 264 8.0 11.0 0.00 0.01 0.01 54 1012.9
20230205152438 43 199 9.0 11.0 0.00 0.01 0.01 54 1012.9
20230205151937 43 195 6.0 8.0 0.00 0.01 0.01 54 1012.8
20230205151436 43 209 9.0 11.0 0.00 0.01 0.01 55 1013.0
20230205150936 43 245 4.0 5.0 0.00 0.01 0.01 55 1013.4
20230205150434 43 237 5.0 6.0 0.00 0.01 0.01 55 1013.5
20230205145933 42 219 6.0 8.0 0.00 0.01 0.01 55 1013.4
20230205145433 42 216 12.0 15.0 0.00 0.01 0.01 54 1013.5
20230205144934 42 220 7.0 8.0 0.00 0.01 0.01 55 1013.3
20230205144432 42 218 9.0 13.0 0.00 0.01 0.01 56 1013.5
20230205143931 42 240 5.0 6.0 0.00 0.01 0.01 56 1013.5
20230205143429 41 218 7.0 9.0 0.00 0.01 0.01 56 1013.6
20230205142928 41 211 8.0 10.0 0.00 0.01 0.01 56 1013.5
20230205142428 41 218 9.0 11.0 0.00 0.01 0.01 56 1013.4
20230205141928 40 229 5.0 7.0 0.00 0.01 0.01 57 1013.5
20230205141426 40 220 9.0 11.0 0.00 0.01 0.01 57 1013.8
20230205140925 40 244 4.0 6.0 0.00 0.01 0.01 58 1013.8
20230205140423 40 209 7.0 9.0 0.00 0.01 0.01 57 1013.6
20230205135923 40 211 5.0 6.0 0.00 0.01 0.01 58 1013.6
20230205135421 40 203 10.0 11.0 0.00 0.01 0.01 57 1013.8
20230205134919 40 209 7.0 8.0 0.00 0.01 0.01 57 1013.9
20230205134419 39 240 3.0 3.0 0.00 0.01 0.01 58 1013.7
20230205133918 39 218 6.0 7.0 0.00 0.01 0.01 57 1013.7
20230205133416 39 222 9.0 13.0 0.00 0.01 0.01 57 1013.9
20230205132914 39 207 7.0 8.0 0.00 0.01 0.01 57 1014.0
20230205132412 39 219 5.0 7.0 0.00 0.01 0.01 57 1013.9
20230205131912 39 199 7.0 9.0 0.00 0.01 0.01 57 1014.1
20230205131411 39 208 5.0 6.0 0.00 0.01 0.01 57 1013.8
20230205130910 39 238 7.0 8.0 0.00 0.01 0.01 57 1013.9
20230205130409 39 195 5.0 6.0 0.00 0.01 0.01 57 1014.0
20230205125908 39 213 2.0 2.0 0.00 0.01 0.01 57 1013.8
20230205125408 39 235 5.0 6.0 0.00 0.01 0.01 57 1014.2
20230205124907 39 201 8.0 9.0 0.00 0.01 0.01 56 1013.8
20230205124407 39 209 7.0 9.0 0.00 0.01 0.01 56 1014.2
20230205123905 40 201 8.0 9.0 0.00 0.01 0.01 56 1014.0
20230205123404 40 199 9.0 10.0 0.00 0.01 0.01 56 1014.4
20230205122904 40 192 10.0 11.0 0.00 0.01 0.01 55 1014.6
20230205122403 40 228 9.0 11.0 0.00 0.01 0.01 55 1014.3
20230205121901 40 214 9.0 11.0 0.00 0.01 0.01 55 1014.6
20230205121400 40 227 4.0 5.0 0.00 0.01 0.01 55 1014.6
20230205120858 40 203 5.0 6.0 0.00 0.01 0.01 55 1014.7
20230205120357 40 232 11.0 13.0 0.00 0.01 0.01 55 1014.7
20230205115856 40 224 14.0 17.0 0.00 0.01 0.01 55 1014.9
20230205115356 40 233 7.0 10.0 0.00 0.01 0.01 55 1014.7
20230205114855 40 244 5.0 7.0 0.00 0.01 0.01 55 1014.8
20230205114354 40 188 6.0 7.0 0.00 0.01 0.01 55 1014.8
20230205113852 40 235 7.0 8.0 0.00 0.01 0.01 55 1014.9
20230205113351 40 199 3.0 5.0 0.00 0.01 0.01 55 1014.8
20230205112850 40 214 9.0 11.0 0.00 0.01 0.01 55 1014.7
20230205112351 40 220 5.0 7.0 0.00 0.01 0.01 55 1014.9
20230205111849 40 243 6.0 7.0 0.00 0.01 0.01 55 1014.9
20230205111349 40 210 10.0 11.0 0.00 0.01 0.01 55 1014.8
20230205110848 40 234 7.0 9.0 0.00 0.01 0.01 55 1015.0
20230205110348 40 235 10.0 13.0 0.00 0.01 0.01 55 1014.8
20230205105848 40 221 5.0 6.0 0.00 0.01 0.01 54 1014.8
20230205105346 40 222 4.0 6.0 0.00 0.01 0.01 54 1015.1
20230205104845 40 257 7.0 9.0 0.00 0.01 0.01 54 1015.0
20230205104345 40 198 5.0 7.0 0.00 0.01 0.01 54 1014.9
20230205103844 40 203 5.0 7.0 0.00 0.01 0.01 54 1014.8
20230205103343 40 222 7.0 9.0 0.00 0.01 0.01 53 1014.6
20230205102842 41 194 2.0 2.0 0.00 0.01 0.01 53 1014.7
20230205102341 41 222 5.0 6.0 0.00 0.01 0.01 52 1014.8
20230205101839 41 181 3.0 3.0 0.00 0.01 0.01 52 1014.7
20230205101337 41 180 6.0 7.0 0.00 0.01 0.01 52 1014.6
20230205100836 41 173 5.0 6.0 0.00 0.01 0.01 51 1014.6
20230205100335 41 193 5.0 8.0 0.00 0.01 0.01 52 1014.7
20230205095834 41 215 5.0 6.0 0.00 0.01 0.01 51 1014.8
20230205095333 42 222 6.0 7.0 0.00 0.01 0.01 51 1014.4
20230205094832 42 204 8.0 9.0 0.00 0.01 0.01 51 1014.9
20230205094331 42 227 10.0 13.0 0.00 0.01 0.01 51 1014.7
20230205093830 42 237 7.0 8.0 0.00 0.01 0.01 51 1014.8
20230205093330 42 208 9.0 11.0 0.00 0.01 0.01 51 1014.9
20230205092830 42 253 8.0 10.0 0.07 0.01 0.01 51 1015.0
20230205092328 42 214 9.0 10.0 0.07 0.01 0.01 51 1014.8
20230205091827 42 203 5.0 5.0 0.00 0.00 0.00 52 1015.1
20230205091327 42 226 6.0 8.0 0.00 0.00 0.00 52 1015.2
20230205090825 42 238 7.0 9.0 0.00 0.00 0.00 52 1015.3
20230205090324 42 196 3.0 3.0 0.00 0.00 0.00 52 1015.2
20230205085822 42 218 5.0 7.0 0.00 0.00 0.00 51 1015.1
20230205085320 42 250 5.0 6.0 0.00 0.00 0.00 51 1015.5
20230205084818 42 216 5.0 7.0 0.00 0.00 0.00 51 1015.3
20230205084317 42 202 7.0 8.0 0.00 0.00 0.00 51 1015.4
20230205083816 42 208 5.0 6.0 0.00 0.00 0.00 51 1015.4
20230205083315 42 204 4.0 5.0 0.00 0.00 0.00 52 1015.4
20230205082814 42 240 4.0 6.0 0.00 0.00 0.00 52 1015.4
20230205082312 42 236 6.0 7.0 0.00 0.00 0.00 51 1015.4
20230205081813 41 199 4.0 5.0 0.00 0.00 0.00 51 1015.4
20230205081312 42 229 7.0 8.0 0.00 0.00 0.00 51 1015.7
20230205080811 42 210 4.0 5.0 0.00 0.00 0.00 51 1015.3
20230205080310 42 215 5.0 6.0 0.00 0.00 0.00 51 1015.4
20230205075810 42 219 4.0 7.0 0.00 0.00 0.00 51 1015.6
20230205075310 42 207 5.0 6.0 0.00 0.00 0.00 51 1015.4
20230205074809 42 203 3.0 3.0 0.00 0.00 0.00 50 1015.4
20230205074309 41 219 5.0 6.0 0.00 0.00 0.00 51 1015.6
20230205073809 41 207 4.0 5.0 0.00 0.00 0.00 51 1015.6
20230205073308 41 174 3.0 3.0 0.00 0.00 0.00 51 1015.3
20230205072806 41 222 3.0 3.0 0.00 0.00 0.00 51 1015.4
20230205072305 42 211 9.0 10.0 0.00 0.00 0.00 50 1015.4
20230205071805 41 244 8.0 14.0 0.00 0.00 0.00 51 1015.7
20230205071305 41 225 6.0 8.0 0.00 0.00 0.00 51 1015.6
20230205070804 41 203 6.0 7.0 0.00 0.00 0.00 51 1015.7
20230205070304 41 218 8.0 8.0 0.00 0.00 0.00 51 1015.7
20230205065802 41 220 7.0 11.0 0.00 0.00 0.00 51 1015.6
20230205065304 41 236 2.0 2.0 0.00 0.00 0.00 52 1015.7
20230205064759 41 240 3.0 3.0 0.00 0.00 0.00 52 1015.8
20230205064258 41 229 5.0 6.0 0.00 0.00 0.00 52 1015.7
20230205063758 41 218 3.0 3.0 0.00 0.00 0.00 51 1015.8
20230205063257 40 213 7.0 9.0 0.00 0.00 0.00 52 1015.8
20230205062756 40 225 5.0 6.0 0.00 0.00 0.00 53 1016.1
20230205062256 40 201 4.0 5.0 0.00 0.00 0.00 54 1016.0
20230205061755 39 198 6.0 6.0 0.00 0.00 0.00 54 1016.1
20230205061255 38 215 6.0 7.0 0.00 0.00 0.00 56 1015.7
20230205060753 38 178 2.0 2.0 0.00 0.00 0.00 58 1015.9
20230205060252 37 171 1.0 1.0 0.00 0.00 0.00 59 1016.1
20230205055752 36 165 3.0 3.0 0.00 0.00 0.00 60 1015.8
20230205055252 36 181 2.0 2.0 0.00 0.00 0.00 61 1016.0
20230205054752 36 162 3.0 3.0 0.00 0.00 0.00 61 1016.0
20230205054251 36 162 3.0 5.0 0.00 0.00 0.00 61 1015.9
20230205053750 35 164 3.0 5.0 0.00 0.00 0.00 62 1016.1
20230205053250 35 190 3.0 3.0 0.00 0.00 0.00 63 1016.2
20230205052749 34 166 1.0 1.0 0.00 0.00 0.00 63 1016.3
20230205052247 34 161 3.0 5.0 0.00 0.00 0.00 63 1016.2
20230205051746 34 162 2.0 2.0 0.00 0.00 0.00 63 1016.4
20230205051244 34 154 3.0 3.0 0.00 0.00 0.00 63 1016.3
20230205050743 34 139 1.0 2.0 0.00 0.00 0.00 63 1016.7
20230205050241 34 150 2.0 2.0 0.00 0.00 0.00 63 1016.4
20230205045740 33 159 2.0 2.0 0.00 0.00 0.00 63 1016.5
20230205045239 33 144 2.0 2.0 0.00 0.00 0.00 63 1016.5
20230205044735 33 152 2.0 2.0 0.00 0.00 0.00 62 1016.5
20230205044234 33 162 3.0 3.0 0.00 0.00 0.00 62 1016.5
20230205043733 33 160 2.0 2.0 0.00 0.00 0.00 62 1016.5
20230205043233 33 163 2.0 2.0 0.00 0.00 0.00 62 1016.5
20230205042732 33 156 3.0 3.0 0.00 0.00 0.00 62 1016.6
20230205042231 33 158 3.0 3.0 0.00 0.00 0.00 62 1016.6
20230205041730 33 166 2.0 2.0 0.00 0.00 0.00 61 1016.5
20230205041229 33 154 3.0 5.0 0.00 0.00 0.00 60 1016.6
20230205040729 33 160 3.0 3.0 0.00 0.00 0.00 60 1016.5
20230205040229 33 161 2.0 2.0 0.00 0.00 0.00 59 1016.6
20230205035727 33 171 3.0 3.0 0.00 0.00 0.00 59 1016.7
20230205035227 33 178 4.0 5.0 0.00 0.00 0.00 59 1016.7
20230205034726 33 170 3.0 3.0 0.00 0.00 0.00 58 1016.9
20230205034226 33 140 4.0 5.0 0.00 0.00 0.00 58 1016.9
20230205033724 33 167 2.0 2.0 0.00 0.00 0.00 58 1016.7
20230205033223 33 173 2.0 2.0 0.00 0.00 0.00 58 1016.7
20230205032723 33 186 5.0 5.0 0.00 0.00 0.00 57 1016.7
20230205032221 33 171 3.0 3.0 0.00 0.00 0.00 57 1016.9
20230205031720 33 174 4.0 6.0 0.00 0.00 0.00 57 1017.0
20230205031219 33 177 2.0 2.0 0.00 0.00 0.00 56 1016.8
20230205030718 33 178 6.0 7.0 0.00 0.00 0.00 56 1016.8
20230205030217 33 186 2.0 2.0 0.00 0.00 0.00 56 1016.8
20230205025716 33 181 5.0 7.0 0.00 0.00 0.00 56 1016.6
20230205025215 33 182 4.0 5.0 0.00 0.00 0.00 56 1016.7
20230205024714 33 190 5.0 6.0 0.00 0.00 0.00 56 1016.8
20230205024214 33 196 5.0 6.0 0.00 0.00 0.00 55 1017.0
20230205023714 32 175 3.0 5.0 0.00 0.00 0.00 56 1016.7
20230205023212 32 181 4.0 6.0 0.00 0.00 0.00 55 1016.9
20230205022711 32 181 2.0 2.0 0.00 0.00 0.00 55 1017.0
20230205022211 32 184 3.0 5.0 0.00 0.00 0.00 55 1017.1
20230205021710 32 186 3.0 5.0 0.00 0.00 0.00 55 1016.9
20230205021210 32 184 5.0 5.0 0.00 0.00 0.00 55 1017.0
20230205020708 32 186 3.0 5.0 0.00 0.00 0.00 55 1017.1
20230205020207 32 156 4.0 5.0 0.00 0.00 0.00 55 1017.1
20230205015706 32 171 3.0 3.0 0.00 0.00 0.00 55 1017.3
20230205015206 32 170 3.0 3.0 0.00 0.00 0.00 54 1017.1
20230205014705 32 167 2.0 2.0 0.00 0.00 0.00 54 1017.5
20230205014205 33 168 4.0 6.0 0.00 0.00 0.00 53 1017.4
20230205013704 33 184 3.0 5.0 0.00 0.00 0.00 53 1017.2
20230205013203 33 190 4.0 5.0 0.00 0.00 0.00 53 1017.6
20230205012702 33 185 5.0 6.0 0.00 0.00 0.00 52 1017.5
20230205012201 33 158 4.0 5.0 0.00 0.00 0.00 52 1017.6
20230205011700 33 166 5.0 6.0 0.00 0.00 0.00 52 1017.5
20230205011159 33 208 5.0 7.0 0.00 0.00 0.00 52 1017.8
20230205010659 33 184 3.0 3.0 0.00 0.00 0.00 52 1017.7
20230205010158 33 165 3.0 3.0 0.00 0.00 0.00 52 1017.6
20230205005658 33 190 9.0 10.0 0.00 0.00 0.00 51 1017.8
20230205005156 33 157 6.0 7.0 0.00 0.00 0.00 52 1017.9
20230205004655 33 193 6.0 9.0 0.00 0.00 0.00 52 1017.8
20230205004154 33 191 3.0 3.0 0.00 0.00 0.00 52 1017.8
20230205003653 33 189 3.0 3.0 0.00 0.00 0.00 52 1018.1
20230205003152 33 195 9.0 13.0 0.00 0.00 0.00 51 1018.0